createdAt,value
2023-08-30T00:00:33.213Z,8.45
2023-08-30T00:03:08.074Z,8.15
2023-08-30T00:05:39.030Z,8.38
2023-08-30T00:10:54.106Z,8.05
2023-08-30T00:19:00.095Z,8.27
2023-08-30T00:21:31.469Z,8.55
2023-08-30T00:26:45.122Z,8.25
2023-08-30T00:29:18.989Z,8.13
2023-08-30T00:31:58.668Z,7.95
2023-08-30T00:34:29.074Z,8.07
2023-08-30T00:39:46.922Z,9.15
2023-08-30T00:45:07.347Z,8.65
2023-08-30T00:47:54.978Z,8.60
2023-08-30T00:50:32.204Z,8.45
2023-08-30T00:55:59.131Z,8.70
2023-08-30T00:58:34.992Z,8.77
2023-08-30T01:01:10.152Z,9.25
2023-08-30T01:03:46.114Z,8.82
2023-08-30T01:06:17.644Z,9.10
2023-08-30T01:08:59.205Z,9.23
2023-08-30T01:15:32.074Z,8.80
2023-08-30T01:18:04.862Z,9.43
2023-08-30T01:20:44.104Z,8.95
2023-08-30T01:23:35.776Z,8.10
2023-08-30T01:26:09.116Z,8.70
2023-08-30T01:28:46.076Z,8.50
2023-08-30T01:31:24.040Z,8.35
2023-08-30T01:33:58.942Z,8.55
2023-08-30T01:36:40.345Z,8.23
2023-08-30T01:39:09.054Z,8.82
2023-08-30T01:41:44.281Z,8.95
2023-08-30T01:44:13.768Z,9.20
2023-08-30T01:46:47.981Z,9.88
2023-08-30T01:49:23.000Z,11.13
2023-08-30T01:52:15.039Z,10.68
2023-08-30T01:54:47.865Z,11.40
2023-08-30T01:57:22.040Z,12.02
2023-08-30T01:59:49.880Z,12.93
2023-08-30T02:02:32.231Z,11.57
2023-08-30T02:05:10.218Z,12.65
2023-08-30T02:07:46.377Z,12.63
2023-08-30T02:10:35.425Z,12.68
2023-08-30T02:13:13.224Z,12.32
2023-08-30T02:15:51.295Z,12.43
2023-08-30T02:18:19.935Z,11.63
2023-08-30T02:20:56.377Z,11.77
2023-08-30T02:23:26.500Z,12.00
2023-08-30T02:26:02.142Z,11.50
2023-08-30T02:28:29.865Z,10.90
2023-08-30T02:31:04.232Z,11.27
2023-08-30T02:33:31.934Z,11.18
2023-08-30T02:36:10.093Z,12.23
2023-08-30T02:38:44.161Z,11.45
2023-08-30T02:41:18.097Z,11.50
2023-08-30T02:43:52.154Z,11.60
2023-08-30T02:46:27.728Z,11.93
2023-08-30T02:51:58.175Z,11.23
2023-08-30T02:57:22.128Z,10.65
2023-08-30T02:59:52.970Z,11.30
2023-08-30T03:02:30.341Z,10.38
2023-08-30T03:04:58.143Z,10.70
2023-08-30T03:10:28.514Z,10.65
2023-08-30T03:12:56.237Z,10.27
2023-08-30T03:18:10.419Z,10.20
2023-08-30T03:20:58.612Z,11.18
2023-08-30T03:23:28.722Z,10.77
2023-08-30T03:28:50.544Z,10.40
2023-08-30T03:31:29.179Z,9.90
2023-08-30T03:34:02.970Z,9.25
2023-08-30T03:39:19.187Z,9.75
2023-08-30T03:41:54.358Z,9.50
2023-08-30T03:50:08.194Z,9.77
2023-08-30T03:52:43.113Z,10.32
2023-08-30T03:55:11.215Z,9.85
2023-08-30T03:57:48.201Z,9.75
2023-08-30T04:00:18.828Z,9.15
2023-08-30T04:02:55.986Z,9.73
2023-08-30T04:05:29.120Z,9.82
2023-08-30T04:08:03.370Z,10.07
2023-08-30T04:10:48.327Z,10.10
2023-08-30T04:13:28.145Z,10.07
2023-08-30T04:16:04.189Z,10.75
2023-08-30T04:18:34.532Z,12.52
2023-08-30T04:21:10.240Z,11.05
2023-08-30T04:23:46.202Z,10.90
2023-08-30T04:26:13.677Z,11.50
2023-08-30T04:38:56.236Z,12.30
2023-08-30T04:47:56.106Z,13.27
2023-08-30T04:50:46.406Z,13.75
2023-08-30T04:53:16.699Z,13.15
2023-08-30T04:55:53.351Z,12.95
2023-08-30T04:58:36.354Z,13.75
2023-08-30T05:01:06.908Z,13.02
2023-08-30T05:03:41.265Z,13.15
2023-08-30T05:06:13.575Z,13.65
2023-08-30T05:08:47.175Z,13.35
2023-08-30T05:11:23.168Z,14.82
2023-08-30T05:14:00.220Z,13.70
2023-08-30T05:16:30.212Z,14.23
2023-08-30T05:19:04.196Z,14.07
2023-08-30T05:21:34.555Z,14.55
2023-08-30T05:26:52.603Z,13.80
2023-08-30T05:29:29.232Z,13.35
2023-08-30T05:31:56.822Z,13.63
2023-08-30T05:37:08.313Z,14.18
2023-08-30T05:39:45.283Z,13.60
2023-08-30T05:42:20.268Z,13.18
2023-08-30T05:44:50.478Z,13.18
2023-08-30T05:47:27.138Z,13.27
2023-08-30T05:50:07.704Z,13.27
2023-08-30T05:52:49.253Z,12.68
2023-08-30T05:55:25.021Z,16.25
2023-08-30T05:58:01.298Z,15.52
2023-08-30T06:00:29.236Z,20.70
2023-08-30T06:03:06.164Z,18.95
2023-08-30T06:05:37.648Z,14.63
2023-08-30T06:08:15.272Z,13.20
2023-08-30T06:10:49.013Z,13.15
2023-08-30T06:13:23.275Z,12.55
2023-08-30T06:16:00.569Z,13.82
2023-08-30T06:18:36.238Z,13.80
2023-08-30T06:21:15.779Z,13.77
2023-08-30T06:23:43.202Z,13.38
2023-08-30T06:26:19.152Z,13.13
2023-08-30T06:29:03.663Z,12.73
2023-08-30T06:31:40.355Z,15.23
2023-08-30T06:37:05.437Z,17.23
2023-08-30T06:39:37.986Z,14.20
2023-08-30T06:42:12.283Z,13.43
2023-08-30T06:44:48.228Z,11.82
2023-08-30T06:47:21.077Z,12.57
2023-08-30T06:50:19.455Z,12.38
2023-08-30T06:52:53.277Z,11.27
2023-08-30T06:55:30.350Z,13.90
2023-08-30T06:58:07.922Z,13.52
2023-08-30T07:00:39.028Z,11.93
2023-08-30T07:03:13.311Z,12.65
2023-08-30T07:05:45.179Z,11.85
2023-08-30T07:08:19.336Z,11.35
2023-08-30T07:10:50.207Z,11.73
2023-08-30T07:13:34.158Z,10.45
2023-08-30T07:16:07.992Z,11.30
2023-08-30T07:18:42.282Z,10.25
2023-08-30T07:21:13.175Z,9.93
2023-08-30T07:23:47.147Z,9.65
2023-08-30T07:26:22.412Z,10.13
2023-08-30T07:28:59.346Z,9.30
2023-08-30T07:31:35.378Z,10.10
2023-08-30T07:34:14.834Z,10.05
2023-08-30T07:36:47.748Z,9.75
2023-08-30T07:39:23.345Z,9.70
2023-08-30T07:41:51.109Z,10.70
2023-08-30T07:44:25.269Z,11.00
2023-08-30T07:46:59.249Z,11.57
2023-08-30T07:49:43.587Z,11.23
2023-08-30T07:52:43.679Z,10.75
2023-08-30T07:55:23.326Z,11.63
2023-08-30T07:57:50.881Z,11.52
2023-08-30T08:00:27.437Z,12.93
2023-08-30T08:02:57.614Z,12.77
2023-08-30T08:05:25.214Z,12.55
2023-08-30T08:08:01.437Z,14.00
2023-08-30T08:10:32.020Z,12.90
2023-08-30T08:13:08.462Z,11.90
2023-08-30T08:15:46.594Z,12.25
2023-08-30T08:18:26.564Z,12.18
2023-08-30T08:20:54.604Z,12.57
2023-08-30T08:23:29.141Z,12.57
2023-08-30T08:26:04.179Z,11.73
2023-08-30T08:28:38.582Z,11.73
2023-08-30T08:31:12.935Z,11.43
2023-08-30T08:33:47.454Z,11.75
2023-08-30T08:36:14.765Z,12.73
2023-08-30T08:38:50.761Z,11.85
2023-08-30T08:41:32.357Z,11.55
2023-08-30T08:44:10.270Z,11.95
2023-08-30T08:46:48.365Z,12.45
2023-08-30T08:49:38.776Z,11.73
2023-08-30T08:52:28.033Z,11.52
2023-08-30T08:55:07.206Z,12.15
2023-08-30T08:57:34.728Z,12.77
2023-08-30T09:00:19.208Z,12.65
2023-08-30T09:02:54.634Z,13.02
2023-08-30T09:05:23.916Z,13.35
2023-08-30T09:08:01.232Z,12.40
2023-08-30T09:10:29.140Z,13.15
2023-08-30T09:13:02.225Z,12.23
2023-08-30T09:15:36.277Z,14.02
2023-08-30T09:18:10.140Z,14.07
2023-08-30T09:20:36.992Z,13.85
2023-08-30T09:23:10.554Z,14.15
2023-08-30T09:25:37.746Z,13.35
2023-08-30T09:28:11.220Z,13.25
2023-08-30T09:30:38.330Z,12.77
2023-08-30T09:33:12.433Z,12.60
2023-08-30T09:35:48.905Z,13.73
2023-08-30T09:38:27.155Z,13.85
2023-08-30T09:41:05.484Z,14.60
2023-08-30T09:43:41.227Z,15.27
2023-08-30T09:46:15.242Z,13.82
2023-08-30T09:48:42.776Z,15.25
2023-08-30T09:51:17.402Z,15.55
2023-08-30T09:56:44.276Z,15.77
2023-08-30T09:59:16.136Z,16.83
2023-08-30T10:01:51.225Z,15.70
2023-08-30T10:04:27.360Z,15.90
2023-08-30T10:06:57.193Z,17.35
2023-08-30T10:09:32.200Z,16.75
2023-08-30T10:12:09.240Z,16.67
2023-08-30T10:14:43.186Z,17.17
2023-08-30T10:17:13.729Z,16.23
2023-08-30T10:19:42.325Z,15.95
2023-08-30T10:22:23.159Z,16.40
2023-08-30T10:25:10.113Z,16.83
2023-08-30T10:27:49.225Z,17.05
2023-08-30T10:30:18.290Z,17.42
2023-08-30T10:32:52.246Z,16.27
2023-08-30T10:35:27.295Z,16.02
2023-08-30T10:38:07.308Z,15.02
2023-08-30T10:40:34.192Z,15.27
2023-08-30T10:43:11.446Z,16.08
2023-08-30T10:45:38.508Z,15.10
2023-08-30T10:48:12.375Z,14.05
2023-08-30T10:50:45.814Z,15.80
2023-08-30T10:53:22.186Z,14.80
2023-08-30T10:56:05.155Z,13.95
2023-08-30T10:58:51.239Z,13.93
2023-08-30T11:01:25.274Z,15.93
2023-08-30T11:04:13.445Z,15.20
2023-08-30T11:06:54.778Z,14.95
2023-08-30T11:09:31.297Z,14.45
2023-08-30T11:11:58.376Z,14.15
2023-08-30T11:14:32.264Z,12.48
2023-08-30T11:16:59.232Z,12.75
2023-08-30T11:19:38.292Z,12.82
2023-08-30T11:22:12.287Z,11.25
2023-08-30T11:24:39.313Z,11.18
2023-08-30T11:27:13.252Z,10.57
2023-08-30T11:29:41.690Z,11.63
2023-08-30T11:32:18.287Z,11.27
2023-08-30T11:34:46.349Z,10.10
2023-08-30T11:37:23.284Z,9.27
2023-08-30T11:39:54.037Z,11.55
2023-08-30T11:42:30.441Z,9.68
2023-08-30T11:44:59.636Z,9.15
2023-08-30T11:47:37.906Z,10.40
2023-08-30T11:50:13.944Z,9.65
2023-08-30T11:52:48.272Z,9.75
2023-08-30T11:55:26.819Z,10.15
2023-08-30T11:58:08.823Z,10.45
2023-08-30T12:00:40.294Z,9.93
2023-08-30T12:03:17.493Z,9.95
2023-08-30T12:05:52.470Z,9.73
2023-08-30T12:08:37.369Z,11.23
2023-08-30T12:11:07.735Z,11.05
2023-08-30T12:13:45.419Z,11.15
2023-08-30T12:16:25.369Z,11.48
2023-08-30T12:18:53.227Z,11.95
2023-08-30T12:21:30.455Z,12.05
2023-08-30T12:24:07.456Z,12.48
2023-08-30T12:29:25.645Z,12.00
2023-08-30T12:31:59.454Z,11.63
2023-08-30T12:34:27.162Z,11.82
2023-08-30T12:39:35.220Z,10.88
2023-08-30T12:42:12.823Z,11.75
2023-08-30T12:44:43.643Z,11.68
2023-08-30T12:47:10.958Z,11.57
2023-08-30T12:49:45.413Z,11.55
2023-08-30T12:52:27.040Z,11.65
2023-08-30T12:54:55.578Z,10.65
2023-08-30T13:00:23.462Z,10.27
2023-08-30T13:02:54.476Z,11.32
2023-08-30T13:05:34.006Z,11.80
2023-08-30T13:08:08.550Z,10.90
2023-08-30T13:10:36.044Z,11.43
2023-08-30T13:13:10.822Z,10.77
2023-08-30T13:15:50.214Z,12.38
2023-08-30T13:18:24.186Z,11.45
2023-08-30T13:20:58.654Z,10.77
2023-08-30T13:23:28.323Z,10.75
2023-08-30T13:26:02.744Z,10.80
2023-08-30T13:28:31.244Z,10.02
2023-08-30T13:31:05.647Z,9.80
2023-08-30T13:33:33.117Z,9.52
2023-08-30T13:36:09.206Z,8.88
2023-08-30T13:38:43.482Z,8.32
2023-08-30T13:41:10.955Z,8.30
2023-08-30T13:43:44.386Z,7.97
2023-08-30T13:46:12.463Z,7.03
2023-08-30T13:48:46.731Z,8.05
2023-08-30T13:51:54.532Z,8.15
2023-08-30T13:54:28.642Z,5.68
2023-08-30T13:56:58.585Z,6.03
2023-08-30T13:59:36.767Z,4.97
2023-08-30T14:02:05.715Z,3.58
2023-08-30T14:04:40.731Z,3.75
2023-08-30T14:07:13.808Z,3.10
2023-08-30T14:09:47.378Z,2.70
2023-08-30T14:12:21.281Z,2.40
2023-08-30T14:14:57.473Z,2.42
2023-08-30T14:17:33.950Z,2.00
2023-08-30T14:20:10.221Z,2.28
2023-08-30T14:22:44.434Z,2.35
2023-08-30T14:25:24.581Z,7.43
2023-08-30T14:27:51.776Z,2.15
2023-08-30T14:30:26.410Z,2.20
2023-08-30T14:33:09.062Z,1.90
2023-08-30T14:35:35.945Z,2.20
2023-08-30T14:38:12.598Z,1.83
2023-08-30T14:40:39.991Z,2.30
2023-08-30T14:43:18.357Z,2.10
2023-08-30T14:45:48.338Z,1.70
2023-08-30T14:48:24.405Z,2.07
2023-08-30T14:51:13.318Z,2.00
2023-08-30T14:53:47.675Z,2.00
2023-08-30T14:56:14.632Z,2.20
2023-08-30T14:58:48.419Z,2.33
2023-08-30T15:01:24.387Z,2.28
2023-08-30T15:03:51.508Z,2.90
2023-08-30T15:06:25.395Z,2.65
2023-08-30T15:08:52.541Z,2.55
2023-08-30T15:14:07.356Z,2.83
2023-08-30T15:16:34.535Z,2.50
2023-08-30T15:19:01.577Z,2.30
2023-08-30T15:21:35.669Z,2.30
2023-08-30T15:24:02.841Z,2.05
2023-08-30T15:26:41.043Z,2.60
2023-08-30T15:29:08.587Z,2.20
2023-08-30T15:35:17.761Z,2.10
2023-08-30T15:37:51.379Z,1.70
2023-08-30T15:40:27.602Z,1.88
2023-08-30T15:43:01.743Z,2.47
2023-08-30T15:45:33.544Z,2.28
2023-08-30T15:48:07.463Z,2.40
2023-08-30T15:50:57.573Z,2.40
2023-08-30T15:53:31.431Z,2.53
2023-08-30T15:56:04.455Z,2.60
2023-08-30T15:58:38.369Z,2.63
2023-08-30T16:01:07.011Z,3.00
2023-08-30T16:03:43.630Z,2.60
2023-08-30T16:06:13.786Z,2.72
2023-08-30T16:08:54.653Z,2.78
2023-08-30T16:11:22.227Z,2.72
2023-08-30T16:14:08.833Z,2.60
2023-08-30T16:16:36.192Z,2.60
2023-08-30T16:19:10.390Z,2.13
2023-08-30T16:21:40.965Z,1.65
2023-08-30T16:24:17.590Z,1.67
2023-08-30T16:26:51.464Z,1.45
2023-08-30T16:29:19.003Z,1.40
2023-08-30T16:31:52.522Z,1.25
2023-08-30T16:34:21.309Z,1.58
2023-08-30T16:36:58.516Z,1.42
2023-08-30T16:39:26.779Z,1.50
2023-08-30T16:42:04.683Z,1.38
2023-08-30T16:44:32.132Z,1.50
2023-08-30T16:47:05.578Z,1.60
2023-08-30T16:49:33.070Z,1.38
2023-08-30T16:52:18.768Z,1.45
2023-08-30T16:54:52.465Z,1.38
2023-08-30T16:57:19.975Z,1.40
2023-08-30T16:59:56.543Z,1.38
2023-08-30T17:02:24.406Z,4.90
2023-08-30T17:04:59.629Z,1.80
2023-08-30T17:07:32.277Z,1.35
2023-08-30T17:10:06.657Z,1.45
2023-08-30T17:12:39.609Z,1.50
2023-08-30T17:15:21.754Z,1.60
2023-08-30T17:17:49.153Z,1.65
2023-08-30T17:20:27.043Z,1.25
2023-08-30T17:22:54.460Z,1.65
2023-08-30T17:25:30.554Z,1.60
2023-08-30T17:27:57.786Z,1.42
2023-08-30T17:30:32.715Z,1.67
2023-08-30T17:33:00.637Z,1.48
2023-08-30T17:35:37.666Z,1.50
2023-08-30T17:41:01.799Z,1.70
2023-08-30T17:43:38.611Z,1.70
2023-08-30T17:46:06.230Z,1.65
2023-08-30T17:48:41.591Z,1.55
2023-08-30T17:51:15.888Z,1.40
2023-08-30T17:53:58.705Z,1.67
2023-08-30T17:56:26.745Z,1.27
2023-08-30T17:59:00.620Z,1.20
2023-08-30T18:01:28.909Z,1.33
2023-08-30T18:04:02.728Z,1.27
2023-08-30T18:06:30.185Z,1.13
2023-08-30T18:09:06.005Z,1.20
2023-08-30T18:11:33.713Z,1.38
2023-08-30T18:14:10.563Z,1.10
2023-08-30T18:16:38.273Z,1.20
2023-08-30T18:19:12.811Z,1.55
2023-08-30T18:21:40.571Z,1.15
2023-08-30T18:24:31.640Z,1.13
2023-08-30T18:27:14.670Z,1.30
2023-08-30T18:29:46.622Z,1.17
2023-08-30T18:32:20.686Z,1.35
2023-08-30T18:34:51.822Z,1.40
2023-08-30T18:37:30.569Z,1.70
2023-08-30T18:39:58.147Z,2.03
2023-08-30T18:42:33.744Z,1.90
2023-08-30T18:45:01.588Z,1.95
2023-08-30T18:47:41.767Z,1.40
2023-08-30T18:53:02.727Z,1.50
2023-08-30T18:58:19.653Z,1.60
2023-08-30T19:00:55.738Z,1.75
2023-08-30T19:03:29.669Z,1.80
2023-08-30T19:08:43.859Z,1.75
2023-08-30T19:11:12.279Z,1.65
2023-08-30T19:13:54.874Z,2.00
2023-08-30T19:16:24.629Z,1.80
2023-08-30T19:18:58.598Z,1.70
2023-08-30T19:21:37.747Z,1.95
2023-08-30T19:24:14.816Z,1.90
2023-08-30T19:26:48.666Z,1.83
2023-08-30T19:29:22.625Z,2.22
2023-08-30T19:31:56.682Z,1.88
2023-08-30T19:34:25.642Z,1.98
2023-08-30T19:36:59.640Z,1.98
2023-08-30T19:39:34.102Z,2.00
2023-08-30T19:42:07.685Z,1.80
2023-08-30T19:44:37.444Z,2.45
2023-08-30T19:47:20.620Z,2.20
2023-08-30T19:49:50.014Z,1.90
2023-08-30T19:52:25.594Z,4.00
2023-08-30T19:54:59.814Z,2.53
2023-08-30T19:57:36.699Z,2.42
2023-08-30T20:00:04.769Z,2.25
2023-08-30T20:02:38.702Z,2.30
2023-08-30T20:05:12.664Z,2.60
2023-08-30T20:07:46.584Z,2.58
2023-08-30T20:10:14.173Z,2.78
2023-08-30T20:15:31.474Z,2.92
2023-08-30T20:18:13.911Z,2.50
2023-08-30T20:20:52.838Z,2.70
2023-08-30T20:23:26.779Z,2.72
2023-08-30T20:26:04.726Z,3.70
2023-08-30T20:28:32.441Z,3.53
2023-08-30T20:31:09.621Z,2.72
2023-08-30T20:33:39.390Z,3.08
2023-08-30T20:36:17.529Z,2.78
2023-08-30T20:38:47.219Z,2.90
2023-08-30T20:47:42.695Z,2.95
2023-08-30T20:50:17.727Z,2.85
2023-08-30T20:53:00.559Z,3.28
2023-08-30T20:55:44.698Z,3.25
2023-08-30T20:58:12.249Z,3.05
2023-08-30T21:00:40.324Z,3.40
2023-08-30T21:03:14.979Z,3.65
2023-08-30T21:05:45.928Z,3.75
2023-08-30T21:08:19.683Z,3.70
2023-08-30T21:10:52.793Z,3.17
2023-08-30T21:13:26.817Z,3.65
2023-08-30T21:16:01.558Z,3.30
2023-08-30T21:21:17.723Z,3.60
2023-08-30T21:23:51.747Z,3.08
2023-08-30T21:26:25.143Z,3.60
2023-08-30T21:29:00.595Z,2.92
2023-08-30T21:31:33.944Z,3.55
2023-08-30T21:34:10.761Z,3.63
2023-08-30T21:36:38.084Z,3.63
2023-08-30T21:39:27.641Z,4.38
2023-08-30T21:42:02.873Z,3.67
2023-08-30T21:44:30.500Z,4.72
2023-08-30T21:47:08.001Z,4.07
2023-08-30T21:49:41.788Z,3.65
2023-08-30T21:52:15.641Z,3.38
2023-08-30T21:54:51.944Z,3.53
2023-08-30T21:57:26.860Z,3.47
2023-08-30T21:59:57.298Z,3.50
2023-08-30T22:02:33.759Z,4.07
2023-08-30T22:05:01.548Z,3.53
2023-08-30T22:07:37.274Z,3.67
2023-08-30T22:10:07.900Z,3.75
2023-08-30T22:12:41.759Z,4.03
2023-08-30T22:15:25.917Z,3.63
2023-08-30T22:17:59.886Z,3.72
2023-08-30T22:20:34.881Z,3.67
2023-08-30T22:23:11.953Z,3.78
2023-08-30T22:25:40.947Z,3.63
2023-08-30T22:28:14.753Z,3.60
2023-08-30T22:30:51.784Z,3.42
2023-08-30T22:36:06.814Z,3.13
2023-08-30T22:38:45.755Z,3.22
2023-08-30T22:41:13.531Z,2.60
2023-08-30T22:43:50.817Z,2.80
2023-08-30T22:49:05.911Z,2.92
2023-08-30T22:51:57.764Z,2.75
2023-08-30T22:54:47.936Z,2.25
2023-08-30T22:57:25.345Z,2.35
2023-08-30T22:59:53.113Z,2.35
2023-08-30T23:02:37.759Z,2.80
2023-08-30T23:05:08.964Z,3.05
2023-08-30T23:07:42.941Z,3.60
2023-08-30T23:10:12.369Z,2.58
2023-08-30T23:12:48.843Z,3.15
2023-08-30T23:15:23.120Z,2.40
2023-08-30T23:18:00.007Z,2.28
2023-08-30T23:20:37.498Z,2.50
2023-08-30T23:23:14.792Z,2.47
2023-08-30T23:25:48.418Z,2.38
2023-08-30T23:28:23.113Z,2.78
2023-08-30T23:30:57.333Z,2.42
2023-08-30T23:33:36.879Z,2.30
2023-08-30T23:36:13.860Z,2.50
2023-08-30T23:38:49.686Z,2.85
2023-08-30T23:41:29.237Z,2.30
2023-08-30T23:43:56.991Z,2.40
2023-08-30T23:49:22.936Z,2.63
2023-08-30T23:51:57.060Z,2.75
2023-08-30T23:54:40.705Z,2.40
2023-08-30T23:57:16.985Z,2.45
2023-08-30T23:59:53.840Z,2.72
